sensor_id;sensor_type;location;lat;lon;timestamp;P1;durP1;ratioP1;P2;durP2;ratioP2
64353;SDS011;50681;53.334;-6.536;2023-07-20T00:01:15;5.10;;;2.90;;
64353;SDS011;50681;53.334;-6.536;2023-07-20T00:03:40;13.73;;;2.93;;
64353;SDS011;50681;53.334;-6.536;2023-07-20T00:06:06;6.88;;;2.95;;
64353;SDS011;50681;53.334;-6.536;2023-07-20T00:08:31;8.30;;;3.20;;
64353;SDS011;50681;53.334;-6.536;2023-07-20T00:10:57;7.47;;;3.20;;
64353;SDS011;50681;53.334;-6.536;2023-07-20T00:13:23;6.88;;;3.20;;
64353;SDS011;50681;53.334;-6.536;2023-07-20T00:15:48;14.63;;;3.27;;
64353;SDS011;50681;53.334;-6.536;2023-07-20T00:18:13;4.90;;;2.83;;
64353;SDS011;50681;53.334;-6.536;2023-07-20T00:20:39;6.90;;;3.23;;
64353;SDS011;50681;53.334;-6.536;2023-07-20T00:23:05;6.82;;;3.47;;
64353;SDS011;50681;53.334;-6.536;2023-07-20T00:25:30;10.55;;;3.58;;
64353;SDS011;50681;53.334;-6.536;2023-07-20T00:27:56;10.33;;;3.50;;
64353;SDS011;50681;53.334;-6.536;2023-07-20T00:30:21;9.23;;;3.47;;
64353;SDS011;50681;53.334;-6.536;2023-07-20T00:32:47;8.83;;;3.47;;
64353;SDS011;50681;53.334;-6.536;2023-07-20T00:35:12;6.07;;;3.20;;
64353;SDS011;50681;53.334;-6.536;2023-07-20T00:40:04;10.23;;;4.07;;
64353;SDS011;50681;53.334;-6.536;2023-07-20T00:42:32;7.43;;;3.85;;
64353;SDS011;50681;53.334;-6.536;2023-07-20T00:44:58;6.72;;;3.50;;
64353;SDS011;50681;53.334;-6.536;2023-07-20T00:47:23;7.40;;;3.67;;
64353;SDS011;50681;53.334;-6.536;2023-07-20T00:49:49;5.78;;;3.33;;
64353;SDS011;50681;53.334;-6.536;2023-07-20T00:52:16;5.53;;;3.30;;
64353;SDS011;50681;53.334;-6.536;2023-07-20T00:54:44;7.25;;;3.45;;
64353;SDS011;50681;53.334;-6.536;2023-07-20T00:57:09;9.02;;;3.53;;
64353;SDS011;50681;53.334;-6.536;2023-07-20T00:59:35;8.05;;;4.15;;
64353;SDS011;50681;53.334;-6.536;2023-07-20T01:02:01;6.50;;;3.33;;
64353;SDS011;50681;53.334;-6.536;2023-07-20T01:04:27;11.45;;;3.83;;
64353;SDS011;50681;53.334;-6.536;2023-07-20T01:10:18;7.63;;;3.83;;
64353;SDS011;50681;53.334;-6.536;2023-07-20T01:12:53;5.82;;;3.90;;
64353;SDS011;50681;53.334;-6.536;2023-07-20T01:15:20;7.90;;;4.10;;
64353;SDS011;50681;53.334;-6.536;2023-07-20T01:17:45;9.00;;;4.03;;
64353;SDS011;50681;53.334;-6.536;2023-07-20T01:20:12;7.13;;;3.72;;
64353;SDS011;50681;53.334;-6.536;2023-07-20T01:33:36;11.20;;;3.47;;
64353;SDS011;50681;53.334;-6.536;2023-07-20T01:36:03;10.35;;;3.90;;
64353;SDS011;50681;53.334;-6.536;2023-07-20T01:38:30;11.32;;;3.97;;
64353;SDS011;50681;53.334;-6.536;2023-07-20T01:40:56;17.08;;;4.00;;
64353;SDS011;50681;53.334;-6.536;2023-07-20T01:43:23;9.00;;;4.18;;
64353;SDS011;50681;53.334;-6.536;2023-07-20T01:45:48;8.23;;;4.00;;
64353;SDS011;50681;53.334;-6.536;2023-07-20T01:48:13;9.93;;;4.00;;
64353;SDS011;50681;53.334;-6.536;2023-07-20T01:50:39;8.97;;;3.77;;
64353;SDS011;50681;53.334;-6.536;2023-07-20T01:53:04;9.60;;;4.30;;
64353;SDS011;50681;53.334;-6.536;2023-07-20T01:55:30;6.57;;;3.67;;
64353;SDS011;50681;53.334;-6.536;2023-07-20T01:57:55;8.05;;;3.97;;
64353;SDS011;50681;53.334;-6.536;2023-07-20T02:00:21;7.07;;;4.07;;
64353;SDS011;50681;53.334;-6.536;2023-07-20T02:02:49;8.25;;;4.05;;
64353;SDS011;50681;53.334;-6.536;2023-07-20T02:05:15;10.13;;;4.22;;
64353;SDS011;50681;53.334;-6.536;2023-07-20T02:07:40;6.53;;;4.13;;
64353;SDS011;50681;53.334;-6.536;2023-07-20T02:10:06;9.45;;;3.78;;
64353;SDS011;50681;53.334;-6.536;2023-07-20T02:12:32;12.25;;;5.28;;
64353;SDS011;50681;53.334;-6.536;2023-07-20T02:14:57;9.67;;;4.10;;
64353;SDS011;50681;53.334;-6.536;2023-07-20T02:17:22;9.63;;;4.47;;
64353;SDS011;50681;53.334;-6.536;2023-07-20T02:19:50;9.73;;;4.50;;
64353;SDS011;50681;53.334;-6.536;2023-07-20T02:22:19;7.22;;;4.00;;
64353;SDS011;50681;53.334;-6.536;2023-07-20T02:24:45;7.80;;;4.50;;
64353;SDS011;50681;53.334;-6.536;2023-07-20T02:27:11;9.53;;;4.07;;
64353;SDS011;50681;53.334;-6.536;2023-07-20T02:29:36;17.60;;;5.17;;
64353;SDS011;50681;53.334;-6.536;2023-07-20T02:32:02;10.27;;;4.18;;
64353;SDS011;50681;53.334;-6.536;2023-07-20T02:34:28;10.20;;;4.90;;
64353;SDS011;50681;53.334;-6.536;2023-07-20T02:36:54;9.43;;;4.67;;
64353;SDS011;50681;53.334;-6.536;2023-07-20T02:39:21;12.63;;;4.60;;
64353;SDS011;50681;53.334;-6.536;2023-07-20T02:41:47;10.40;;;4.57;;
64353;SDS011;50681;53.334;-6.536;2023-07-20T02:44:13;11.23;;;4.30;;
64353;SDS011;50681;53.334;-6.536;2023-07-20T02:46:39;8.48;;;4.68;;
64353;SDS011;50681;53.334;-6.536;2023-07-20T02:49:04;8.73;;;3.60;;
64353;SDS011;50681;53.334;-6.536;2023-07-20T02:51:30;8.30;;;4.03;;
64353;SDS011;50681;53.334;-6.536;2023-07-20T02:53:55;7.27;;;4.10;;
64353;SDS011;50681;53.334;-6.536;2023-07-20T02:56:20;7.23;;;4.10;;
64353;SDS011;50681;53.334;-6.536;2023-07-20T02:58:47;9.48;;;3.95;;
64353;SDS011;50681;53.334;-6.536;2023-07-20T03:01:13;10.03;;;4.03;;
64353;SDS011;50681;53.334;-6.536;2023-07-20T03:03:40;7.80;;;4.20;;
64353;SDS011;50681;53.334;-6.536;2023-07-20T03:06:10;6.68;;;4.22;;
64353;SDS011;50681;53.334;-6.536;2023-07-20T03:08:36;8.23;;;4.35;;
64353;SDS011;50681;53.334;-6.536;2023-07-20T03:11:02;7.57;;;4.20;;
64353;SDS011;50681;53.334;-6.536;2023-07-20T03:13:27;12.00;;;4.45;;
64353;SDS011;50681;53.334;-6.536;2023-07-20T03:15:53;6.70;;;4.40;;
64353;SDS011;50681;53.334;-6.536;2023-07-20T03:18:18;10.00;;;4.68;;
64353;SDS011;50681;53.334;-6.536;2023-07-20T03:20:44;8.17;;;4.10;;
64353;SDS011;50681;53.334;-6.536;2023-07-20T03:23:10;7.25;;;4.05;;
64353;SDS011;50681;53.334;-6.536;2023-07-20T03:25:35;8.77;;;4.07;;
64353;SDS011;50681;53.334;-6.536;2023-07-20T03:28:02;6.30;;;3.70;;
64353;SDS011;50681;53.334;-6.536;2023-07-20T03:30:28;8.85;;;4.18;;
64353;SDS011;50681;53.334;-6.536;2023-07-20T03:32:53;9.70;;;4.43;;
64353;SDS011;50681;53.334;-6.536;2023-07-20T03:35:18;8.30;;;4.47;;
64353;SDS011;50681;53.334;-6.536;2023-07-20T03:37:44;9.70;;;4.30;;
64353;SDS011;50681;53.334;-6.536;2023-07-20T03:40:10;7.18;;;4.18;;
64353;SDS011;50681;53.334;-6.536;2023-07-20T03:42:35;7.63;;;3.67;;
64353;SDS011;50681;53.334;-6.536;2023-07-20T03:45:01;7.88;;;4.25;;
64353;SDS011;50681;53.334;-6.536;2023-07-20T03:49:53;11.05;;;3.90;;
64353;SDS011;50681;53.334;-6.536;2023-07-20T03:52:18;8.87;;;3.87;;
64353;SDS011;50681;53.334;-6.536;2023-07-20T03:54:44;7.63;;;4.00;;
64353;SDS011;50681;53.334;-6.536;2023-07-20T03:57:09;8.07;;;4.00;;
64353;SDS011;50681;53.334;-6.536;2023-07-20T03:59:35;9.20;;;4.40;;
64353;SDS011;50681;53.334;-6.536;2023-07-20T04:02:01;10.05;;;4.57;;
64353;SDS011;50681;53.334;-6.536;2023-07-20T04:04:28;9.67;;;4.00;;
64353;SDS011;50681;53.334;-6.536;2023-07-20T04:06:53;11.18;;;3.92;;
64353;SDS011;50681;53.334;-6.536;2023-07-20T04:09:19;10.20;;;4.30;;
64353;SDS011;50681;53.334;-6.536;2023-07-20T04:11:44;8.43;;;4.40;;
64353;SDS011;50681;53.334;-6.536;2023-07-20T04:14:10;8.17;;;4.57;;
64353;SDS011;50681;53.334;-6.536;2023-07-20T04:16:35;7.10;;;4.40;;
64353;SDS011;50681;53.334;-6.536;2023-07-20T04:19:00;9.67;;;4.30;;
64353;SDS011;50681;53.334;-6.536;2023-07-20T04:21:26;9.30;;;4.57;;
64353;SDS011;50681;53.334;-6.536;2023-07-20T04:23:52;8.20;;;4.30;;
64353;SDS011;50681;53.334;-6.536;2023-07-20T04:26:17;11.47;;;4.70;;
64353;SDS011;50681;53.334;-6.536;2023-07-20T04:28:43;9.90;;;4.43;;
64353;SDS011;50681;53.334;-6.536;2023-07-20T04:31:15;10.40;;;4.73;;
64353;SDS011;50681;53.334;-6.536;2023-07-20T04:33:41;6.05;;;4.00;;
64353;SDS011;50681;53.334;-6.536;2023-07-20T04:36:07;22.30;;;4.72;;
64353;SDS011;50681;53.334;-6.536;2023-07-20T04:38:33;10.02;;;4.50;;
64353;SDS011;50681;53.334;-6.536;2023-07-20T04:40:59;21.08;;;5.25;;
64353;SDS011;50681;53.334;-6.536;2023-07-20T04:43:24;9.65;;;4.65;;
64353;SDS011;50681;53.334;-6.536;2023-07-20T04:45:51;11.88;;;4.72;;
64353;SDS011;50681;53.334;-6.536;2023-07-20T04:48:16;12.97;;;4.37;;
64353;SDS011;50681;53.334;-6.536;2023-07-20T04:50:43;10.27;;;4.40;;
64353;SDS011;50681;53.334;-6.536;2023-07-20T04:53:13;10.45;;;4.40;;
64353;SDS011;50681;53.334;-6.536;2023-07-20T04:55:39;9.38;;;4.25;;
64353;SDS011;50681;53.334;-6.536;2023-07-20T04:58:05;8.85;;;4.30;;
64353;SDS011;50681;53.334;-6.536;2023-07-20T05:00:32;7.82;;;4.45;;
64353;SDS011;50681;53.334;-6.536;2023-07-20T05:02:58;12.52;;;4.82;;
64353;SDS011;50681;53.334;-6.536;2023-07-20T05:05:24;8.88;;;4.40;;
64353;SDS011;50681;53.334;-6.536;2023-07-20T05:07:50;8.53;;;4.30;;
64353;SDS011;50681;53.334;-6.536;2023-07-20T05:10:15;12.63;;;4.27;;
64353;SDS011;50681;53.334;-6.536;2023-07-20T05:12:41;11.85;;;3.92;;
64353;SDS011;50681;53.334;-6.536;2023-07-20T05:15:07;8.43;;;4.50;;
64353;SDS011;50681;53.334;-6.536;2023-07-20T05:17:32;7.20;;;4.25;;
64353;SDS011;50681;53.334;-6.536;2023-07-20T05:19:58;7.90;;;4.20;;
64353;SDS011;50681;53.334;-6.536;2023-07-20T05:22:23;7.20;;;4.87;;
64353;SDS011;50681;53.334;-6.536;2023-07-20T05:24:49;9.20;;;4.90;;
64353;SDS011;50681;53.334;-6.536;2023-07-20T05:27:15;16.45;;;4.43;;
64353;SDS011;50681;53.334;-6.536;2023-07-20T05:29:47;6.73;;;4.33;;
64353;SDS011;50681;53.334;-6.536;2023-07-20T05:32:12;11.90;;;4.38;;
64353;SDS011;50681;53.334;-6.536;2023-07-20T05:34:38;10.48;;;4.65;;
64353;SDS011;50681;53.334;-6.536;2023-07-20T05:37:04;8.73;;;4.57;;
64353;SDS011;50681;53.334;-6.536;2023-07-20T05:39:32;9.30;;;5.00;;
64353;SDS011;50681;53.334;-6.536;2023-07-20T05:41:57;7.50;;;4.20;;
64353;SDS011;50681;53.334;-6.536;2023-07-20T05:44:23;7.60;;;4.30;;
64353;SDS011;50681;53.334;-6.536;2023-07-20T05:46:48;10.27;;;4.80;;
64353;SDS011;50681;53.334;-6.536;2023-07-20T05:49:14;9.97;;;3.83;;
64353;SDS011;50681;53.334;-6.536;2023-07-20T05:51:39;13.33;;;4.70;;
64353;SDS011;50681;53.334;-6.536;2023-07-20T05:54:05;9.43;;;4.17;;
64353;SDS011;50681;53.334;-6.536;2023-07-20T05:56:30;9.50;;;4.17;;
64353;SDS011;50681;53.334;-6.536;2023-07-20T05:58:55;7.23;;;4.30;;
64353;SDS011;50681;53.334;-6.536;2023-07-20T06:01:21;9.00;;;4.33;;
64353;SDS011;50681;53.334;-6.536;2023-07-20T06:03:46;7.07;;;4.30;;
64353;SDS011;50681;53.334;-6.536;2023-07-20T06:06:12;10.10;;;4.47;;
64353;SDS011;50681;53.334;-6.536;2023-07-20T06:08:38;8.80;;;4.50;;
64353;SDS011;50681;53.334;-6.536;2023-07-20T06:11:03;7.32;;;4.68;;
64353;SDS011;50681;53.334;-6.536;2023-07-20T06:13:29;7.68;;;4.72;;
64353;SDS011;50681;53.334;-6.536;2023-07-20T06:15:54;6.47;;;4.38;;
64353;SDS011;50681;53.334;-6.536;2023-07-20T06:18:22;6.93;;;4.57;;
64353;SDS011;50681;53.334;-6.536;2023-07-20T06:20:49;8.20;;;4.75;;
64353;SDS011;50681;53.334;-6.536;2023-07-20T06:23:15;11.15;;;5.05;;
64353;SDS011;50681;53.334;-6.536;2023-07-20T06:25:41;11.80;;;5.60;;
64353;SDS011;50681;53.334;-6.536;2023-07-20T06:28:06;11.77;;;4.70;;
64353;SDS011;50681;53.334;-6.536;2023-07-20T06:30:33;8.20;;;4.80;;
64353;SDS011;50681;53.334;-6.536;2023-07-20T06:32:59;11.23;;;5.03;;
64353;SDS011;50681;53.334;-6.536;2023-07-20T06:35:25;10.97;;;5.97;;
64353;SDS011;50681;53.334;-6.536;2023-07-20T06:37:51;9.40;;;5.57;;
64353;SDS011;50681;53.334;-6.536;2023-07-20T06:40:16;11.47;;;5.70;;
64353;SDS011;50681;53.334;-6.536;2023-07-20T06:42:42;7.57;;;4.70;;
64353;SDS011;50681;53.334;-6.536;2023-07-20T06:45:08;8.75;;;5.35;;
64353;SDS011;50681;53.334;-6.536;2023-07-20T06:47:34;9.93;;;5.43;;
64353;SDS011;50681;53.334;-6.536;2023-07-20T06:49:59;9.37;;;6.07;;
64353;SDS011;50681;53.334;-6.536;2023-07-20T06:52:25;16.83;;;5.70;;
64353;SDS011;50681;53.334;-6.536;2023-07-20T06:54:50;9.95;;;5.78;;
64353;SDS011;50681;53.334;-6.536;2023-07-20T06:57:16;15.07;;;5.40;;
64353;SDS011;50681;53.334;-6.536;2023-07-20T06:59:41;9.03;;;5.10;;
64353;SDS011;50681;53.334;-6.536;2023-07-20T07:02:07;9.27;;;5.37;;
64353;SDS011;50681;53.334;-6.536;2023-07-20T07:04:33;11.18;;;5.65;;
64353;SDS011;50681;53.334;-6.536;2023-07-20T07:06:59;10.18;;;5.47;;
64353;SDS011;50681;53.334;-6.536;2023-07-20T07:09:25;11.45;;;5.47;;
64353;SDS011;50681;53.334;-6.536;2023-07-20T07:11:50;16.00;;;8.43;;
64353;SDS011;50681;53.334;-6.536;2023-07-20T07:14:15;12.93;;;6.10;;
64353;SDS011;50681;53.334;-6.536;2023-07-20T07:16:41;16.27;;;6.00;;
64353;SDS011;50681;53.334;-6.536;2023-07-20T07:19:06;15.53;;;6.70;;
64353;SDS011;50681;53.334;-6.536;2023-07-20T07:21:32;10.97;;;6.10;;
64353;SDS011;50681;53.334;-6.536;2023-07-20T07:23:57;9.97;;;5.80;;
64353;SDS011;50681;53.334;-6.536;2023-07-20T07:26:24;14.80;;;6.30;;
64353;SDS011;50681;53.334;-6.536;2023-07-20T07:28:50;10.70;;;6.63;;
64353;SDS011;50681;53.334;-6.536;2023-07-20T07:31:16;11.23;;;6.93;;
64353;SDS011;50681;53.334;-6.536;2023-07-20T07:33:41;18.30;;;7.33;;
64353;SDS011;50681;53.334;-6.536;2023-07-20T07:36:06;10.97;;;7.00;;
64353;SDS011;50681;53.334;-6.536;2023-07-20T07:38:32;12.73;;;7.87;;
64353;SDS011;50681;53.334;-6.536;2023-07-20T07:40:58;11.87;;;6.40;;
64353;SDS011;50681;53.334;-6.536;2023-07-20T07:45:49;14.02;;;7.63;;
64353;SDS011;50681;53.334;-6.536;2023-07-20T07:48:15;13.38;;;7.35;;
64353;SDS011;50681;53.334;-6.536;2023-07-20T07:50:41;15.90;;;7.93;;
64353;SDS011;50681;53.334;-6.536;2023-07-20T07:53:07;14.70;;;8.93;;
64353;SDS011;50681;53.334;-6.536;2023-07-20T07:55:33;12.27;;;8.88;;
64353;SDS011;50681;53.334;-6.536;2023-07-20T07:57:59;12.73;;;8.50;;
64353;SDS011;50681;53.334;-6.536;2023-07-20T08:00:25;11.27;;;7.87;;
64353;SDS011;50681;53.334;-6.536;2023-07-20T08:02:51;11.45;;;7.80;;
64353;SDS011;50681;53.334;-6.536;2023-07-20T08:05:18;8.70;;;5.43;;
64353;SDS011;50681;53.334;-6.536;2023-07-20T08:07:43;14.13;;;8.50;;
64353;SDS011;50681;53.334;-6.536;2023-07-20T08:10:09;17.50;;;9.43;;
64353;SDS011;50681;53.334;-6.536;2023-07-20T08:12:34;13.43;;;7.57;;
64353;SDS011;50681;53.334;-6.536;2023-07-20T08:15:00;15.00;;;8.40;;
64353;SDS011;50681;53.334;-6.536;2023-07-20T08:17:26;12.10;;;8.32;;
64353;SDS011;50681;53.334;-6.536;2023-07-20T08:19:51;13.60;;;8.37;;
64353;SDS011;50681;53.334;-6.536;2023-07-20T08:22:16;12.87;;;7.83;;
64353;SDS011;50681;53.334;-6.536;2023-07-20T08:24:42;12.15;;;7.53;;
64353;SDS011;50681;53.334;-6.536;2023-07-20T08:27:08;13.57;;;8.23;;
64353;SDS011;50681;53.334;-6.536;2023-07-20T08:29:38;15.80;;;7.03;;
64353;SDS011;50681;53.334;-6.536;2023-07-20T08:32:04;18.10;;;7.50;;
64353;SDS011;50681;53.334;-6.536;2023-07-20T08:34:30;12.82;;;7.18;;
64353;SDS011;50681;53.334;-6.536;2023-07-20T08:36:56;11.40;;;7.32;;
64353;SDS011;50681;53.334;-6.536;2023-07-20T08:41:48;11.43;;;7.25;;
64353;SDS011;50681;53.334;-6.536;2023-07-20T08:44:14;11.40;;;7.72;;
64353;SDS011;50681;53.334;-6.536;2023-07-20T08:46:40;9.88;;;7.30;;
64353;SDS011;50681;53.334;-6.536;2023-07-20T08:49:07;13.18;;;7.53;;
64353;SDS011;50681;53.334;-6.536;2023-07-20T08:51:33;17.75;;;7.65;;
64353;SDS011;50681;53.334;-6.536;2023-07-20T08:54:01;11.88;;;6.43;;
64353;SDS011;50681;53.334;-6.536;2023-07-20T08:56:30;10.02;;;6.18;;
64353;SDS011;50681;53.334;-6.536;2023-07-20T08:58:58;10.45;;;5.68;;
64353;SDS011;50681;53.334;-6.536;2023-07-20T09:01:25;9.93;;;5.47;;
64353;SDS011;50681;53.334;-6.536;2023-07-20T09:03:53;8.02;;;4.90;;
64353;SDS011;50681;53.334;-6.536;2023-07-20T09:06:18;9.37;;;5.47;;
64353;SDS011;50681;53.334;-6.536;2023-07-20T09:08:44;9.05;;;5.75;;
64353;SDS011;50681;53.334;-6.536;2023-07-20T09:11:10;8.50;;;6.13;;
64353;SDS011;50681;53.334;-6.536;2023-07-20T09:13:37;7.65;;;5.40;;
64353;SDS011;50681;53.334;-6.536;2023-07-20T09:16:03;10.88;;;5.57;;
64353;SDS011;50681;53.334;-6.536;2023-07-20T09:20:59;9.20;;;5.68;;
64353;SDS011;50681;53.334;-6.536;2023-07-20T09:23:45;7.68;;;5.43;;
64353;SDS011;50681;53.334;-6.536;2023-07-20T09:26:12;8.20;;;5.47;;
64353;SDS011;50681;53.334;-6.536;2023-07-20T09:28:42;14.02;;;6.95;;
64353;SDS011;50681;53.334;-6.536;2023-07-20T09:31:15;9.50;;;5.68;;
64353;SDS011;50681;53.334;-6.536;2023-07-20T09:33:42;11.57;;;6.18;;
64353;SDS011;50681;53.334;-6.536;2023-07-20T09:36:09;9.10;;;6.00;;
64353;SDS011;50681;53.334;-6.536;2023-07-20T09:38:36;9.07;;;5.95;;
64353;SDS011;50681;53.334;-6.536;2023-07-20T09:41:02;8.90;;;5.00;;
64353;SDS011;50681;53.334;-6.536;2023-07-20T09:43:30;7.13;;;4.93;;
64353;SDS011;50681;53.334;-6.536;2023-07-20T09:45:57;9.55;;;4.72;;
64353;SDS011;50681;53.334;-6.536;2023-07-20T09:48:24;6.30;;;4.32;;
64353;SDS011;50681;53.334;-6.536;2023-07-20T09:50:50;10.23;;;5.07;;
64353;SDS011;50681;53.334;-6.536;2023-07-20T09:53:16;11.55;;;5.63;;
64353;SDS011;50681;53.334;-6.536;2023-07-20T09:55:46;10.27;;;5.15;;
64353;SDS011;50681;53.334;-6.536;2023-07-20T09:58:13;8.40;;;4.97;;
64353;SDS011;50681;53.334;-6.536;2023-07-20T10:00:39;11.88;;;5.65;;
64353;SDS011;50681;53.334;-6.536;2023-07-20T10:03:10;10.40;;;6.20;;
64353;SDS011;50681;53.334;-6.536;2023-07-20T10:05:43;8.43;;;5.13;;
64353;SDS011;50681;53.334;-6.536;2023-07-20T10:08:17;9.98;;;6.18;;
64353;SDS011;50681;53.334;-6.536;2023-07-20T10:10:45;9.35;;;5.75;;
64353;SDS011;50681;53.334;-6.536;2023-07-20T10:13:21;9.65;;;5.90;;
64353;SDS011;50681;53.334;-6.536;2023-07-20T10:15:53;9.70;;;6.40;;
64353;SDS011;50681;53.334;-6.536;2023-07-20T10:18:28;13.27;;;6.70;;
64353;SDS011;50681;53.334;-6.536;2023-07-20T10:20:55;11.38;;;6.65;;
64353;SDS011;50681;53.334;-6.536;2023-07-20T10:23:24;13.95;;;6.60;;
64353;SDS011;50681;53.334;-6.536;2023-07-20T10:25:53;14.38;;;6.35;;
64353;SDS011;50681;53.334;-6.536;2023-07-20T10:28:19;9.88;;;7.07;;
64353;SDS011;50681;53.334;-6.536;2023-07-20T10:30:45;14.45;;;7.32;;
64353;SDS011;50681;53.334;-6.536;2023-07-20T10:33:11;8.52;;;5.80;;
64353;SDS011;50681;53.334;-6.536;2023-07-20T10:35:53;13.68;;;7.35;;
64353;SDS011;50681;53.334;-6.536;2023-07-20T10:41:19;10.05;;;6.93;;
64353;SDS011;50681;53.334;-6.536;2023-07-20T10:43:45;12.55;;;6.88;;
64353;SDS011;50681;53.334;-6.536;2023-07-20T10:48:59;15.55;;;8.55;;
64353;SDS011;50681;53.334;-6.536;2023-07-20T10:51:24;14.73;;;6.80;;
64353;SDS011;50681;53.334;-6.536;2023-07-20T10:53:49;13.68;;;7.13;;
64353;SDS011;50681;53.334;-6.536;2023-07-20T10:56:19;10.40;;;6.90;;
64353;SDS011;50681;53.334;-6.536;2023-07-20T10:58:46;11.07;;;7.13;;
64353;SDS011;50681;53.334;-6.536;2023-07-20T11:01:15;9.38;;;6.65;;
64353;SDS011;50681;53.334;-6.536;2023-07-20T11:03:42;10.60;;;6.15;;
64353;SDS011;50681;53.334;-6.536;2023-07-20T11:08:50;13.45;;;6.57;;
64353;SDS011;50681;53.334;-6.536;2023-07-20T11:11:21;9.10;;;5.70;;
64353;SDS011;50681;53.334;-6.536;2023-07-20T11:13:58;10.63;;;6.88;;
64353;SDS011;50681;53.334;-6.536;2023-07-20T11:16:41;15.32;;;7.00;;
64353;SDS011;50681;53.334;-6.536;2023-07-20T11:19:13;9.18;;;6.47;;
64353;SDS011;50681;53.334;-6.536;2023-07-20T11:21:46;10.32;;;6.43;;
64353;SDS011;50681;53.334;-6.536;2023-07-20T11:24:15;10.35;;;6.40;;
64353;SDS011;50681;53.334;-6.536;2023-07-20T11:26:41;17.25;;;7.50;;
64353;SDS011;50681;53.334;-6.536;2023-07-20T11:29:07;10.52;;;6.90;;
64353;SDS011;50681;53.334;-6.536;2023-07-20T11:31:41;12.85;;;7.45;;
64353;SDS011;50681;53.334;-6.536;2023-07-20T11:34:15;9.43;;;5.90;;
64353;SDS011;50681;53.334;-6.536;2023-07-20T11:36:47;10.77;;;6.88;;
64353;SDS011;50681;53.334;-6.536;2023-07-20T11:39:14;10.88;;;6.72;;
64353;SDS011;50681;53.334;-6.536;2023-07-20T11:41:48;12.35;;;7.95;;
64353;SDS011;50681;53.334;-6.536;2023-07-20T11:44:18;11.55;;;6.30;;
64353;SDS011;50681;53.334;-6.536;2023-07-20T11:46:59;12.68;;;7.57;;
64353;SDS011;50681;53.334;-6.536;2023-07-20T11:49:35;10.70;;;6.90;;
64353;SDS011;50681;53.334;-6.536;2023-07-20T11:52:03;8.10;;;5.85;;
64353;SDS011;50681;53.334;-6.536;2023-07-20T11:54:30;10.30;;;7.35;;
64353;SDS011;50681;53.334;-6.536;2023-07-20T11:59:21;11.73;;;8.00;;
64353;SDS011;50681;53.334;-6.536;2023-07-20T12:01:47;10.57;;;7.32;;
64353;SDS011;50681;53.334;-6.536;2023-07-20T12:04:12;14.93;;;7.97;;
64353;SDS011;50681;53.334;-6.536;2023-07-20T12:06:38;12.80;;;7.70;;
64353;SDS011;50681;53.334;-6.536;2023-07-20T12:09:04;13.23;;;7.93;;
64353;SDS011;50681;53.334;-6.536;2023-07-20T12:11:33;12.52;;;8.35;;
64353;SDS011;50681;53.334;-6.536;2023-07-20T12:14:02;12.05;;;6.53;;
64353;SDS011;50681;53.334;-6.536;2023-07-20T12:16:29;6.95;;;5.43;;
64353;SDS011;50681;53.334;-6.536;2023-07-20T12:19:02;6.90;;;5.28;;
64353;SDS011;50681;53.334;-6.536;2023-07-20T12:21:30;10.02;;;6.43;;
64353;SDS011;50681;53.334;-6.536;2023-07-20T12:23:56;11.63;;;7.55;;
64353;SDS011;50681;53.334;-6.536;2023-07-20T12:26:23;10.52;;;7.00;;
64353;SDS011;50681;53.334;-6.536;2023-07-20T12:28:50;10.15;;;6.57;;
64353;SDS011;50681;53.334;-6.536;2023-07-20T12:31:15;9.93;;;6.90;;
64353;SDS011;50681;53.334;-6.536;2023-07-20T12:33:41;10.40;;;6.82;;
64353;SDS011;50681;53.334;-6.536;2023-07-20T12:36:07;11.95;;;7.32;;
64353;SDS011;50681;53.334;-6.536;2023-07-20T12:41:00;14.55;;;7.20;;
64353;SDS011;50681;53.334;-6.536;2023-07-20T12:43:26;13.65;;;8.02;;
64353;SDS011;50681;53.334;-6.536;2023-07-20T12:45:52;11.23;;;7.85;;
64353;SDS011;50681;53.334;-6.536;2023-07-20T12:48:18;10.52;;;7.30;;
64353;SDS011;50681;53.334;-6.536;2023-07-20T12:50:43;12.05;;;7.35;;
64353;SDS011;50681;53.334;-6.536;2023-07-20T12:53:08;13.60;;;7.43;;
64353;SDS011;50681;53.334;-6.536;2023-07-20T12:55:34;11.82;;;7.22;;
64353;SDS011;50681;53.334;-6.536;2023-07-20T12:57:59;12.80;;;8.13;;
64353;SDS011;50681;53.334;-6.536;2023-07-20T13:00:25;12.20;;;7.57;;
64353;SDS011;50681;53.334;-6.536;2023-07-20T13:02:51;13.10;;;7.25;;
64353;SDS011;50681;53.334;-6.536;2023-07-20T13:05:16;11.48;;;6.85;;
64353;SDS011;50681;53.334;-6.536;2023-07-20T13:07:42;8.82;;;7.00;;
64353;SDS011;50681;53.334;-6.536;2023-07-20T13:10:08;14.35;;;7.28;;
64353;SDS011;50681;53.334;-6.536;2023-07-20T13:12:35;11.70;;;7.72;;
64353;SDS011;50681;53.334;-6.536;2023-07-20T13:15:03;10.65;;;6.57;;
64353;SDS011;50681;53.334;-6.536;2023-07-20T13:17:33;11.70;;;7.25;;
64353;SDS011;50681;53.334;-6.536;2023-07-20T13:20:03;15.75;;;9.10;;
64353;SDS011;50681;53.334;-6.536;2023-07-20T13:22:29;11.48;;;9.25;;
64353;SDS011;50681;53.334;-6.536;2023-07-20T13:24:55;12.82;;;9.77;;
64353;SDS011;50681;53.334;-6.536;2023-07-20T13:27:21;14.53;;;9.90;;
64353;SDS011;50681;53.334;-6.536;2023-07-20T13:29:47;12.82;;;9.57;;
64353;SDS011;50681;53.334;-6.536;2023-07-20T13:32:13;14.05;;;10.07;;
64353;SDS011;50681;53.334;-6.536;2023-07-20T13:34:45;23.40;;;11.07;;
64353;SDS011;50681;53.334;-6.536;2023-07-20T13:37:11;14.95;;;10.57;;
64353;SDS011;50681;53.334;-6.536;2023-07-20T13:39:37;19.60;;;11.10;;
64353;SDS011;50681;53.334;-6.536;2023-07-20T13:42:03;12.50;;;9.27;;
64353;SDS011;50681;53.334;-6.536;2023-07-20T13:44:30;18.27;;;9.40;;
64353;SDS011;50681;53.334;-6.536;2023-07-20T13:46:59;18.75;;;9.20;;
64353;SDS011;50681;53.334;-6.536;2023-07-20T13:51:51;16.83;;;8.68;;
64353;SDS011;50681;53.334;-6.536;2023-07-20T13:54:16;12.90;;;9.88;;
64353;SDS011;50681;53.334;-6.536;2023-07-20T13:56:42;16.17;;;9.57;;
64353;SDS011;50681;53.334;-6.536;2023-07-20T13:59:07;12.67;;;7.70;;
64353;SDS011;50681;53.334;-6.536;2023-07-20T14:01:33;14.30;;;9.03;;
64353;SDS011;50681;53.334;-6.536;2023-07-20T14:03:59;16.27;;;10.10;;
64353;SDS011;50681;53.334;-6.536;2023-07-20T14:06:28;14.48;;;8.68;;
64353;SDS011;50681;53.334;-6.536;2023-07-20T14:08:54;15.15;;;8.63;;
64353;SDS011;50681;53.334;-6.536;2023-07-20T14:11:20;9.90;;;7.27;;
64353;SDS011;50681;53.334;-6.536;2023-07-20T14:13:45;9.73;;;7.50;;
64353;SDS011;50681;53.334;-6.536;2023-07-20T14:16:11;10.75;;;7.03;;
64353;SDS011;50681;53.334;-6.536;2023-07-20T14:18:36;12.77;;;7.03;;
64353;SDS011;50681;53.334;-6.536;2023-07-20T14:21:02;10.77;;;6.78;;
64353;SDS011;50681;53.334;-6.536;2023-07-20T14:23:28;12.48;;;5.68;;
64353;SDS011;50681;53.334;-6.536;2023-07-20T14:25:54;9.23;;;5.80;;
64353;SDS011;50681;53.334;-6.536;2023-07-20T14:28:20;10.65;;;5.68;;
64353;SDS011;50681;53.334;-6.536;2023-07-20T14:30:46;8.60;;;4.70;;
64353;SDS011;50681;53.334;-6.536;2023-07-20T14:33:11;12.60;;;6.30;;
64353;SDS011;50681;53.334;-6.536;2023-07-20T14:35:37;9.35;;;6.18;;
64353;SDS011;50681;53.334;-6.536;2023-07-20T14:38:02;10.13;;;6.45;;
64353;SDS011;50681;53.334;-6.536;2023-07-20T14:40:28;7.38;;;5.28;;
64353;SDS011;50681;53.334;-6.536;2023-07-20T14:42:54;9.05;;;5.53;;
64353;SDS011;50681;53.334;-6.536;2023-07-20T14:45:24;9.50;;;6.05;;
64353;SDS011;50681;53.334;-6.536;2023-07-20T14:47:49;8.15;;;5.35;;
64353;SDS011;50681;53.334;-6.536;2023-07-20T14:50:18;7.88;;;5.20;;
64353;SDS011;50681;53.334;-6.536;2023-07-20T14:52:45;7.10;;;5.20;;
64353;SDS011;50681;53.334;-6.536;2023-07-20T14:55:11;11.15;;;5.13;;
64353;SDS011;50681;53.334;-6.536;2023-07-20T14:57:36;12.23;;;5.22;;
64353;SDS011;50681;53.334;-6.536;2023-07-20T15:00:02;19.27;;;6.03;;
64353;SDS011;50681;53.334;-6.536;2023-07-20T15:02:32;10.20;;;5.93;;
64353;SDS011;50681;53.334;-6.536;2023-07-20T15:04:57;15.18;;;6.22;;
64353;SDS011;50681;53.334;-6.536;2023-07-20T15:07:23;9.13;;;5.72;;